Time;durP1;ratioP1;P1;durP2;ratioP2;P2;SDS_P1;SDS_P2;PMS_P1;PMS_P2;Temp;Humidity;BMP_temperature;BMP_pressure;BME280_temperature;BME280_humidity;BME280_pressure;Samples;Min_cycle;Max_cycle;Signal;HPM_P1;HPM_P2
2022/01/20 00:00:17;;;;;;;;;;;4.50;1.00;;;;;;5083158;28;19959;-81
2022/01/20 00:02:42;;;;;;;;;;;4.50;1.00;;;;;;5082838;28;19919;-82
2022/01/20 00:27:03;;;;;;;;;;;4.30;1.00;;;;;;5085132;28;19919;-82
2022/01/20 00:29:31;;;;;;;;;;;4.30;1.00;;;;;;5079358;28;19928;-81
2022/01/20 00:32:09;;;;;;;;;;;4.30;1.00;;;;;;5083376;28;20018;-81
2022/01/20 00:37:20;;;;;;;;;;;4.30;1.00;;;;;;5085032;28;19938;-81
2022/01/20 00:39:45;;;;;;;;;;;4.30;1.00;;;;;;5078327;28;19913;-81
2022/01/20 00:42:11;;;;;;;;;;;4.30;1.00;;;;;;5081642;28;19962;-82
2022/01/20 00:44:37;;;;;;;;;;;4.30;1.00;;;;;;5080935;28;19981;-83
2022/01/20 00:47:02;;;;;;;;;;;4.20;1.00;;;;;;5090136;28;19919;-81
2022/01/20 00:49:29;;;;;;;;;;;4.20;1.00;;;;;;5078284;28;19923;-82
2022/01/20 00:51:54;;;;;;;;;;;4.20;1.00;;;;;;5083885;28;19916;-82
2022/01/20 00:54:20;;;;;;;;;;;4.20;1.00;;;;;;5071075;28;19987;-81
2022/01/20 00:56:45;;;;;;;;;;;4.20;1.00;;;;;;5073961;28;19917;-82
2022/01/20 00:59:11;;;;;;;;;;;4.20;1.00;;;;;;5077475;28;19998;-82
2022/01/20 01:01:36;;;;;;;;;;;4.20;1.00;;;;;;5078549;28;19908;-81
2022/01/20 01:04:02;;;;;;;;;;;4.20;1.00;;;;;;5077983;28;19912;-82
2022/01/20 01:08:53;;;;;;;;;;;4.30;1.00;;;;;;5076838;28;20332;-82
2022/01/20 01:11:20;;;;;;;;;;;4.30;1.00;;;;;;5076611;28;19965;-82
2022/01/20 01:13:46;;;;;;;;;;;4.30;1.00;;;;;;5102798;28;19911;-81
2022/01/20 01:16:13;;;;;;;;;;;4.30;1.00;;;;;;5072188;28;19912;-82
2022/01/20 01:21:41;;;;;;;;;;;4.20;1.00;;;;;;5080636;28;19920;-82
2022/01/20 01:24:06;;;;;;;;;;;4.20;1.00;;;;;;5074460;28;20007;-82
2022/01/20 01:26:31;;;;;;;;;;;4.20;1.00;;;;;;5082551;28;19920;-81
2022/01/20 01:28:59;;;;;;;;;;;4.20;1.00;;;;;;5086058;28;19912;-82
2022/01/20 01:31:38;;;;;;;;;;;4.20;1.00;;;;;;5081417;28;19924;-81
2022/01/20 01:34:10;;;;;;;;;;;4.20;1.00;;;;;;5073001;28;19909;-82
2022/01/20 01:39:20;;;;;;;;;;;4.20;1.00;;;;;;5074691;28;20121;-82
2022/01/20 01:41:46;;;;;;;;;;;4.30;1.00;;;;;;5080526;28;19995;-81
2022/01/20 01:44:19;;;;;;;;;;;4.30;1.00;;;;;;5077073;28;19927;-81
2022/01/20 01:46:45;;;;;;;;;;;4.40;1.00;;;;;;5076084;28;19927;-81
2022/01/20 01:49:10;;;;;;;;;;;4.40;1.00;;;;;;5070986;28;19916;-81
2022/01/20 01:51:36;;;;;;;;;;;4.40;1.00;;;;;;5068232;28;19915;-82
2022/01/20 01:54:01;;;;;;;;;;;4.40;1.00;;;;;;5079437;28;19934;-81
2022/01/20 01:56:27;;;;;;;;;;;4.50;1.00;;;;;;5081833;28;19916;-81
2022/01/20 01:58:54;;;;;;;;;;;4.50;1.00;;;;;;5072752;28;20365;-82
2022/01/20 02:01:19;;;;;;;;;;;4.50;1.00;;;;;;5079042;28;19995;-82
2022/01/20 02:03:55;;;;;;;;;;;4.50;1.00;;;;;;5080109;28;19912;-82
2022/01/20 02:09:21;;;;;;;;;;;4.50;1.00;;;;;;5081510;28;20361;-82
2022/01/20 02:19:59;;;;;;;;;;;4.50;1.00;;;;;;5076916;28;20372;-83
2022/01/20 02:22:25;;;;;;;;;;;4.50;1.00;;;;;;5078417;28;19909;-82
2022/01/20 02:24:50;;;;;;;;;;;4.50;1.00;;;;;;5080091;28;19913;-82
2022/01/20 02:27:16;;;;;;;;;;;4.50;1.00;;;;;;5084555;28;19916;-82
2022/01/20 02:29:43;;;;;;;;;;;4.50;1.00;;;;;;5106803;28;19923;-82
2022/01/20 02:32:08;;;;;;;;;;;4.50;1.00;;;;;;5074443;28;19905;-82
2022/01/20 02:34:34;;;;;;;;;;;4.50;1.00;;;;;;5069782;28;20004;-82
2022/01/20 02:37:02;;;;;;;;;;;4.50;1.00;;;;;;5079096;28;19908;-82
2022/01/20 02:39:48;;;;;;;;;;;4.50;1.00;;;;;;5101371;28;19919;-81
2022/01/20 02:45:18;;;;;;;;;;;4.40;1.00;;;;;;5016017;28;19933;-82
2022/01/20 02:47:44;;;;;;;;;;;4.30;1.00;;;;;;5023651;28;19918;-82
2022/01/20 02:50:10;;;;;;;;;;;4.30;1.00;;;;;;5041009;28;19916;-82
2022/01/20 02:52:35;;;;;;;;;;;4.30;1.00;;;;;;5109587;28;19971;-82
2022/01/20 02:55:01;;;;;;;;;;;4.30;1.00;;;;;;5074961;28;19909;-82
2022/01/20 02:57:26;;;;;;;;;;;4.20;1.00;;;;;;5078186;28;19959;-82
2022/01/20 02:59:52;;;;;;;;;;;4.20;1.00;;;;;;5077037;28;19908;-82
2022/01/20 03:02:18;;;;;;;;;;;4.10;1.00;;;;;;5076595;28;19919;-82
2022/01/20 03:04:43;;;;;;;;;;;4.10;1.00;;;;;;5084870;28;19912;-82
2022/01/20 03:07:09;;;;;;;;;;;4.10;1.00;;;;;;5076513;28;19969;-83
2022/01/20 03:09:35;;;;;;;;;;;4.10;1.00;;;;;;5073998;28;19924;-81
2022/01/20 03:12:01;;;;;;;;;;;4.00;1.00;;;;;;5078658;28;19920;-82
2022/01/20 03:14:26;;;;;;;;;;;4.00;1.00;;;;;;5083823;28;19908;-82
2022/01/20 03:16:52;;;;;;;;;;;4.00;1.00;;;;;;5075268;28;19913;-81
2022/01/20 03:19:17;;;;;;;;;;;4.00;1.00;;;;;;5071001;28;19923;-82
2022/01/20 03:21:44;;;;;;;;;;;4.10;1.00;;;;;;5080491;28;20008;-82
2022/01/20 03:24:09;;;;;;;;;;;4.10;1.00;;;;;;5075882;28;19920;-82
2022/01/20 03:26:35;;;;;;;;;;;4.10;1.00;;;;;;5076041;28;19913;-82
2022/01/20 03:29:01;;;;;;;;;;;4.20;1.00;;;;;;5079530;28;19917;-82
2022/01/20 03:31:27;;;;;;;;;;;4.20;1.00;;;;;;5079891;28;19912;-82
2022/01/20 03:33:52;;;;;;;;;;;4.20;1.00;;;;;;5080367;28;19919;-82
2022/01/20 03:36:18;;;;;;;;;;;4.30;1.00;;;;;;5076257;28;19923;-81
2022/01/20 03:38:44;;;;;;;;;;;4.30;1.00;;;;;;5083881;28;19917;-82
2022/01/20 03:41:10;;;;;;;;;;;4.30;1.00;;;;;;5084873;28;20291;-82
2022/01/20 03:43:35;;;;;;;;;;;4.30;1.00;;;;;;5078499;28;19951;-82
2022/01/20 03:46:03;;;;;;;;;;;4.40;1.00;;;;;;5081065;28;19991;-82
2022/01/20 03:48:29;;;;;;;;;;;4.40;1.00;;;;;;5083095;28;20425;-82
2022/01/20 03:51:04;;;;;;;;;;;4.40;1.00;;;;;;5082442;28;19946;-82
2022/01/20 03:53:31;;;;;;;;;;;4.40;1.00;;;;;;5082372;28;19919;-81
2022/01/20 03:55:57;;;;;;;;;;;4.50;1.00;;;;;;5079309;28;20356;-81
2022/01/20 03:58:23;;;;;;;;;;;4.50;1.00;;;;;;5077853;28;19994;-82
2022/01/20 04:00:48;;;;;;;;;;;4.50;1.00;;;;;;5081744;28;19913;-82
2022/01/20 04:03:15;;;;;;;;;;;4.50;1.00;;;;;;5090775;28;19923;-83
2022/01/20 04:05:56;;;;;;;;;;;4.50;1.00;;;;;;5080536;28;19923;-82
2022/01/20 04:08:22;;;;;;;;;;;4.40;1.00;;;;;;5076512;28;20008;-81
2022/01/20 04:10:47;;;;;;;;;;;4.40;1.00;;;;;;5075168;28;19923;-82
2022/01/20 04:13:14;;;;;;;;;;;4.40;1.00;;;;;;5087697;28;19943;-82
2022/01/20 04:15:41;;;;;;;;;;;4.40;1.00;;;;;;5081385;28;19913;-82
2022/01/20 04:18:08;;;;;;;;;;;4.40;1.00;;;;;;5080685;28;19912;-81
2022/01/20 04:20:33;;;;;;;;;;;4.50;1.00;;;;;;5086877;28;19912;-82
2022/01/20 04:22:59;;;;;;;;;;;4.40;1.00;;;;;;5087858;28;19935;-82
2022/01/20 04:25:25;;;;;;;;;;;4.40;1.00;;;;;;5082490;28;19920;-81
2022/01/20 04:27:50;;;;;;;;;;;4.40;1.00;;;;;;5083539;28;20399;-81
2022/01/20 04:30:15;;;;;;;;;;;4.30;1.00;;;;;;5088636;28;19924;-82
2022/01/20 04:32:41;;;;;;;;;;;4.30;1.00;;;;;;5083649;28;20018;-82
2022/01/20 04:35:07;;;;;;;;;;;4.20;1.00;;;;;;5078035;28;20369;-81
2022/01/20 04:37:32;;;;;;;;;;;4.20;1.00;;;;;;5084333;28;19989;-82
2022/01/20 04:40:00;;;;;;;;;;;4.20;1.00;;;;;;5082403;28;19923;-81
2022/01/20 04:42:28;;;;;;;;;;;4.20;1.00;;;;;;5079542;28;19913;-81
2022/01/20 04:44:59;;;;;;;;;;;4.20;1.00;;;;;;5081174;28;20127;-82
2022/01/20 04:47:34;;;;;;;;;;;4.10;1.00;;;;;;5075249;28;20008;-82
2022/01/20 04:58:13;;;;;;;;;;;4.10;1.00;;;;;;5080023;28;19936;-82
2022/01/20 05:00:38;;;;;;;;;;;4.10;1.00;;;;;;5077855;28;19909;-82
2022/01/20 05:03:05;;;;;;;;;;;4.10;1.00;;;;;;5067859;28;19905;-82
2022/01/20 05:05:33;;;;;;;;;;;4.10;1.00;;;;;;5080801;28;19993;-82
2022/01/20 05:07:59;;;;;;;;;;;4.20;1.00;;;;;;5071285;28;19913;-82
2022/01/20 05:10:27;;;;;;;;;;;4.20;1.00;;;;;;5074622;28;19923;-81
2022/01/20 05:15:19;;;;;;;;;;;4.30;1.00;;;;;;5072653;28;19913;-81
2022/01/20 05:17:44;;;;;;;;;;;4.30;1.00;;;;;;5084722;28;19987;-82
2022/01/20 05:20:10;;;;;;;;;;;4.40;1.00;;;;;;5073616;28;19920;-82
2022/01/20 05:22:35;;;;;;;;;;;4.40;1.00;;;;;;5084970;28;19913;-82
2022/01/20 05:25:02;;;;;;;;;;;4.40;1.00;;;;;;5078110;28;19921;-81
2022/01/20 05:27:28;;;;;;;;;;;4.40;1.00;;;;;;5087913;28;19912;-81
2022/01/20 05:29:55;;;;;;;;;;;4.40;1.00;;;;;;5082660;28;19992;-82
2022/01/20 05:32:21;;;;;;;;;;;4.40;1.00;;;;;;5082768;28;19912;-82
2022/01/20 05:34:46;;;;;;;;;;;4.40;1.00;;;;;;5074384;28;19909;-82
2022/01/20 05:37:12;;;;;;;;;;;4.40;1.00;;;;;;5076185;28;19916;-82
2022/01/20 05:39:37;;;;;;;;;;;4.40;1.00;;;;;;5073996;28;19920;-85
2022/01/20 05:42:03;;;;;;;;;;;4.40;1.00;;;;;;5077986;28;19939;-81
2022/01/20 05:44:28;;;;;;;;;;;4.40;1.00;;;;;;5080597;28;19999;-82
2022/01/20 05:46:54;;;;;;;;;;;4.50;1.00;;;;;;5082269;28;19916;-81
2022/01/20 05:49:22;;;;;;;;;;;4.50;1.00;;;;;;5076431;28;19939;-82
2022/01/20 05:51:49;;;;;;;;;;;4.50;1.00;;;;;;5081977;28;20384;-82
2022/01/20 05:54:15;;;;;;;;;;;4.50;1.00;;;;;;5074334;28;19916;-81
2022/01/20 05:56:41;;;;;;;;;;;4.40;1.00;;;;;;5081799;28;19917;-82
2022/01/20 05:59:06;;;;;;;;;;;4.40;1.00;;;;;;5082713;28;19920;-82
2022/01/20 06:01:36;;;;;;;;;;;4.40;1.00;;;;;;5081929;28;19912;-81
2022/01/20 06:04:01;;;;;;;;;;;4.40;1.00;;;;;;5098254;28;19970;-81
2022/01/20 06:06:27;;;;;;;;;;;4.40;1.00;;;;;;5083474;28;20530;-82
2022/01/20 06:08:52;;;;;;;;;;;4.40;1.00;;;;;;5080644;28;19999;-81
2022/01/20 06:11:18;;;;;;;;;;;4.30;1.00;;;;;;5076488;28;19912;-81
2022/01/20 06:13:44;;;;;;;;;;;4.30;1.00;;;;;;5081141;28;19923;-81
2022/01/20 06:16:10;;;;;;;;;;;4.30;1.00;;;;;;5082854;28;19919;-81
2022/01/20 06:18:35;;;;;;;;;;;4.30;1.00;;;;;;5082534;28;19942;-81
2022/01/20 06:21:01;;;;;;;;;;;4.30;1.00;;;;;;5081110;28;19913;-81
2022/01/20 06:23:26;;;;;;;;;;;4.30;1.00;;;;;;5074931;28;19913;-82
2022/01/20 06:25:52;;;;;;;;;;;4.30;1.00;;;;;;5077211;28;19920;-82
2022/01/20 06:28:18;;;;;;;;;;;4.20;1.00;;;;;;5080535;28;19947;-81
2022/01/20 06:30:43;;;;;;;;;;;4.20;1.00;;;;;;5080928;28;19924;-82
2022/01/20 06:33:09;;;;;;;;;;;4.20;1.00;;;;;;5081364;28;19912;-82
2022/01/20 06:35:35;;;;;;;;;;;4.20;1.00;;;;;;5084445;28;19913;-82
2022/01/20 06:38:00;;;;;;;;;;;4.20;1.00;;;;;;5075452;28;19908;-82
2022/01/20 06:40:26;;;;;;;;;;;4.20;1.00;;;;;;5077945;28;19913;-82
2022/01/20 06:42:51;;;;;;;;;;;4.20;1.00;;;;;;5075923;28;20292;-82
2022/01/20 06:45:18;;;;;;;;;;;4.20;1.00;;;;;;5071802;28;19920;-82
2022/01/20 06:47:43;;;;;;;;;;;4.20;1.00;;;;;;5079683;28;19913;-82
2022/01/20 06:50:10;;;;;;;;;;;4.20;1.00;;;;;;5077220;28;19923;-82
2022/01/20 06:52:36;;;;;;;;;;;4.20;1.00;;;;;;5074944;28;19908;-82
2022/01/20 06:55:05;;;;;;;;;;;4.20;1.00;;;;;;5080926;28;19924;-82
2022/01/20 06:57:31;;;;;;;;;;;4.20;1.00;;;;;;5075432;28;19917;-82
2022/01/20 06:59:56;;;;;;;;;;;4.20;1.00;;;;;;5083554;28;19912;-82
2022/01/20 07:02:23;;;;;;;;;;;4.20;1.00;;;;;;5078205;28;19920;-83
2022/01/20 07:04:48;;;;;;;;;;;4.30;1.00;;;;;;5071271;28;20062;-82
2022/01/20 07:07:14;;;;;;;;;;;4.50;1.00;;;;;;5070321;28;20373;-83
2022/01/20 07:09:52;;;;;;;;;;;4.50;1.00;;;;;;5078245;28;19920;-83
2022/01/20 07:12:17;;;;;;;;;;;4.60;1.00;;;;;;5065006;28;19912;-83
2022/01/20 07:14:43;;;;;;;;;;;4.50;1.00;;;;;;5079706;28;19973;-83
2022/01/20 07:17:08;;;;;;;;;;;4.50;1.00;;;;;;5083435;28;19913;-83
2022/01/20 07:19:34;;;;;;;;;;;4.50;1.00;;;;;;5080387;28;19920;-82
2022/01/20 07:22:00;;;;;;;;;;;4.50;1.00;;;;;;5071970;28;19924;-82
2022/01/20 07:24:27;;;;;;;;;;;4.50;1.00;;;;;;5067507;28;19919;-83
2022/01/20 07:26:53;;;;;;;;;;;4.50;1.00;;;;;;5073377;28;19934;-82
2022/01/20 07:29:18;;;;;;;;;;;4.50;1.00;;;;;;5079614;28;20326;-83
2022/01/20 07:31:44;;;;;;;;;;;4.50;1.00;;;;;;5080506;28;19912;-82
2022/01/20 07:34:09;;;;;;;;;;;4.50;1.00;;;;;;5072493;28;19919;-82
2022/01/20 07:36:35;;;;;;;;;;;4.50;1.00;;;;;;5075168;28;20251;-83
2022/01/20 07:39:00;;;;;;;;;;;4.50;1.00;;;;;;5079908;28;19912;-83
2022/01/20 07:41:26;;;;;;;;;;;4.50;1.00;;;;;;5084418;28;19916;-83
2022/01/20 07:43:51;;;;;;;;;;;4.50;1.00;;;;;;5075883;28;20209;-83
2022/01/20 07:46:17;;;;;;;;;;;4.50;1.00;;;;;;5077789;28;19920;-84
2022/01/20 07:48:42;;;;;;;;;;;4.50;1.00;;;;;;5079941;28;20000;-83
2022/01/20 07:51:08;;;;;;;;;;;4.50;1.00;;;;;;5084600;28;19967;-83
2022/01/20 07:53:34;;;;;;;;;;;4.50;1.00;;;;;;5085582;28;19952;-84
2022/01/20 07:56:00;;;;;;;;;;;4.50;1.00;;;;;;5085615;28;19944;-85
2022/01/20 07:58:25;;;;;;;;;;;4.60;1.00;;;;;;5076168;28;20361;-84
2022/01/20 08:00:51;;;;;;;;;;;4.70;1.00;;;;;;5083613;28;19912;-84
2022/01/20 08:03:16;;;;;;;;;;;4.80;1.00;;;;;;5083015;28;19999;-83
2022/01/20 08:05:42;;;;;;;;;;;4.80;99.90;;;;;;5094660;28;19919;-84
2022/01/20 08:08:07;;;;;;;;;;;4.90;99.90;;;;;;5088142;28;19909;-84
2022/01/20 08:10:34;;;;;;;;;;;4.90;99.90;;;;;;5087525;28;19917;-84
2022/01/20 08:13:00;;;;;;;;;;;5.00;99.90;;;;;;5084487;28;19987;-84
2022/01/20 08:15:25;;;;;;;;;;;5.20;99.90;;;;;;5081825;28;19948;-83
2022/01/20 08:17:51;;;;;;;;;;;5.90;99.90;;;;;;5084746;28;20344;-82
2022/01/20 08:20:16;;;;;;;;;;;6.30;99.40;;;;;;5067632;28;19913;-83
2022/01/20 08:22:42;;;;;;;;;;;6.10;99.90;;;;;;5077311;28;19912;-84
2022/01/20 08:25:12;;;;;;;;;;;5.80;99.90;;;;;;5078023;28;19916;-84
2022/01/20 08:27:38;;;;;;;;;;;5.60;99.90;;;;;;5074394;28;19913;-83
2022/01/20 08:30:05;;;;;;;;;;;5.50;99.90;;;;;;5068759;28;20296;-83
2022/01/20 08:32:30;;;;;;;;;;;5.40;99.90;;;;;;5074587;28;19913;-83
2022/01/20 08:34:56;;;;;;;;;;;5.40;99.90;;;;;;5073890;28;19935;-84
2022/01/20 08:37:21;;;;;;;;;;;5.90;99.90;;;;;;5080430;28;20055;-83
2022/01/20 08:39:46;;;;;;;;;;;7.40;99.90;;;;;;5082203;28;19912;-83
2022/01/20 08:42:13;;;;;;;;;;;8.60;99.90;;;;;;5072234;28;20011;-82
2022/01/20 08:44:39;;;;;;;;;;;10.50;1.00;;;;;;5079496;28;19912;-82
2022/01/20 08:47:09;;;;;;;;;;;12.30;1.00;;;;;;5076820;28;19913;-83
2022/01/20 08:49:36;;;;;;;;;;;13.80;1.00;;;;;;5078852;28;19916;-85
2022/01/20 08:52:01;;;;;;;;;;;14.10;1.00;;;;;;5079958;28;19920;-83
2022/01/20 08:54:27;;;;;;;;;;;15.00;1.00;;;;;;5086927;28;19912;-83
2022/01/20 08:56:53;;;;;;;;;;;16.10;1.00;;;;;;5092494;28;19979;-83
2022/01/20 08:59:19;;;;;;;;;;;16.80;1.00;;;;;;5089171;28;19927;-83
2022/01/20 09:01:44;;;;;;;;;;;15.80;1.00;;;;;;5093451;28;19912;-83
2022/01/20 09:04:10;;;;;;;;;;;14.40;1.00;;;;;;5089794;28;19913;-81
2022/01/20 09:06:35;;;;;;;;;;;12.80;1.00;;;;;;5092668;28;19946;-82
2022/01/20 09:09:01;;;;;;;;;;;12.00;1.00;;;;;;5090697;28;19928;-82
2022/01/20 09:11:36;;;;;;;;;;;13.10;1.00;;;;;;5086971;28;19904;-83
2022/01/20 09:16:53;;;;;;;;;;;13.10;1.00;;;;;;5062039;28;19913;-82
2022/01/20 09:19:18;;;;;;;;;;;13.80;1.00;;;;;;5087616;28;19999;-82
2022/01/20 09:21:45;;;;;;;;;;;14.40;1.00;;;;;;5087021;28;19913;-83
2022/01/20 09:24:10;;;;;;;;;;;14.80;1.00;;;;;;5089712;28;19912;-82
2022/01/20 09:26:36;;;;;;;;;;;15.40;1.00;;;;;;5081939;28;19919;-82
2022/01/20 09:29:02;;;;;;;;;;;15.20;1.00;;;;;;5079512;28;19935;-83
2022/01/20 09:31:30;;;;;;;;;;;15.00;1.00;;;;;;5078030;28;19967;-81
2022/01/20 09:33:56;;;;;;;;;;;14.30;1.00;;;;;;5083230;28;19919;-82
2022/01/20 09:36:22;;;;;;;;;;;13.60;1.00;;;;;;5082728;28;19917;-81
2022/01/20 09:38:48;;;;;;;;;;;12.80;1.00;;;;;;5077148;28;19984;-82
2022/01/20 09:41:13;;;;;;;;;;;12.00;1.00;;;;;;5068162;28;19939;-82
2022/01/20 09:43:39;;;;;;;;;;;11.10;1.00;;;;;;5078373;28;20284;-82
2022/01/20 09:46:04;;;;;;;;;;;10.50;1.00;;;;;;5077312;28;20274;-82
2022/01/20 09:48:32;;;;;;;;;;;9.70;1.00;;;;;;5074498;28;19920;-83
2022/01/20 09:50:59;;;;;;;;;;;9.10;1.00;;;;;;5084514;28;19927;-83
2022/01/20 09:53:26;;;;;;;;;;;8.60;1.00;;;;;;5085619;28;19935;-81
2022/01/20 09:55:52;;;;;;;;;;;8.20;1.00;;;;;;5082606;28;20384;-82
2022/01/20 09:58:17;;;;;;;;;;;7.90;1.00;;;;;;5081112;28;19998;-82
2022/01/20 10:00:44;;;;;;;;;;;7.70;1.00;;;;;;5086377;28;20045;-83
2022/01/20 10:03:14;;;;;;;;;;;7.40;1.00;;;;;;5069119;28;19913;-83
2022/01/20 10:05:41;;;;;;;;;;;7.30;1.00;;;;;;5071438;28;19970;-82
2022/01/20 10:08:17;;;;;;;;;;;7.20;1.00;;;;;;5073935;28;19912;-82
2022/01/20 10:10:46;;;;;;;;;;;7.20;1.00;;;;;;5068173;28;19925;-82
2022/01/20 10:13:12;;;;;;;;;;;7.00;1.00;;;;;;5086158;28;19916;-81
2022/01/20 10:15:38;;;;;;;;;;;7.10;1.00;;;;;;5077124;28;20019;-81
2022/01/20 10:18:12;;;;;;;;;;;7.20;1.00;;;;;;5079497;28;19913;-82
2022/01/20 10:20:49;;;;;;;;;;;7.20;1.00;;;;;;5085159;28;19935;-82
2022/01/20 10:23:25;;;;;;;;;;;7.20;1.00;;;;;;5075039;28;20429;-82
2022/01/20 10:26:01;;;;;;;;;;;7.20;1.00;;;;;;5067501;28;19976;-82
2022/01/20 10:28:26;;;;;;;;;;;7.30;1.00;;;;;;5079944;28;19951;-81
2022/01/20 10:30:55;;;;;;;;;;;7.30;1.00;;;;;;5082470;28;19920;-82
2022/01/20 10:33:21;;;;;;;;;;;7.30;1.00;;;;;;5096377;28;19913;-81
2022/01/20 10:35:46;;;;;;;;;;;7.30;1.00;;;;;;5081498;28;19945;-81
2022/01/20 10:38:13;;;;;;;;;;;7.50;1.00;;;;;;5074064;28;20404;-81
2022/01/20 10:40:47;;;;;;;;;;;7.70;1.00;;;;;;5079969;28;19930;-82
2022/01/20 10:43:29;;;;;;;;;;;7.80;1.00;;;;;;5078894;28;19928;-82
2022/01/20 10:46:04;;;;;;;;;;;7.90;1.00;;;;;;5070735;28;19983;-81
2022/01/20 10:48:29;;;;;;;;;;;7.80;1.00;;;;;;5066899;28;19913;-81
2022/01/20 10:50:55;;;;;;;;;;;7.50;1.00;;;;;;5078864;28;19977;-82
2022/01/20 10:53:21;;;;;;;;;;;7.20;1.00;;;;;;5082163;28;19912;-83
2022/01/20 10:55:47;;;;;;;;;;;7.10;1.00;;;;;;5076723;28;19921;-84
2022/01/20 10:58:20;;;;;;;;;;;7.10;1.00;;;;;;5069032;28;19924;-80
2022/01/20 11:00:48;;;;;;;;;;;7.00;1.00;;;;;;5100108;28;19918;-80
2022/01/20 11:03:14;;;;;;;;;;;7.10;1.00;;;;;;5078294;28;19929;-81
2022/01/20 11:05:40;;;;;;;;;;;7.00;1.00;;;;;;5075959;28;19979;-80
2022/01/20 11:08:06;;;;;;;;;;;7.00;1.00;;;;;;5081421;28;19939;-81
2022/01/20 11:10:31;;;;;;;;;;;7.10;1.00;;;;;;5084557;28;19916;-81
2022/01/20 11:12:57;;;;;;;;;;;6.90;1.00;;;;;;5073587;28;20526;-81
2022/01/20 11:15:24;;;;;;;;;;;6.90;1.00;;;;;;5080586;28;20338;-81
2022/01/20 11:17:54;;;;;;;;;;;6.90;1.00;;;;;;5075911;28;19909;-80
2022/01/20 11:20:22;;;;;;;;;;;6.70;1.00;;;;;;5093492;28;19916;-81
2022/01/20 11:22:51;;;;;;;;;;;6.70;1.00;;;;;;5083413;28;19966;-81
2022/01/20 11:25:18;;;;;;;;;;;6.60;1.00;;;;;;5069444;28;19920;-81
2022/01/20 11:27:43;;;;;;;;;;;6.30;1.00;;;;;;5093318;28;19952;-82
2022/01/20 11:30:14;;;;;;;;;;;6.10;1.00;;;;;;5077143;28;19939;-82
2022/01/20 11:32:39;;;;;;;;;;;6.10;1.00;;;;;;5070925;28;19919;-81
2022/01/20 11:35:06;;;;;;;;;;;6.20;1.00;;;;;;5077323;28;19913;-81
2022/01/20 11:37:34;;;;;;;;;;;6.40;1.00;;;;;;5076480;28;19913;-81
2022/01/20 11:40:09;;;;;;;;;;;6.40;1.00;;;;;;5080813;28;19912;-81
2022/01/20 11:42:35;;;;;;;;;;;6.40;1.00;;;;;;5078418;28;19948;-82
2022/01/20 11:45:00;;;;;;;;;;;6.50;1.00;;;;;;5084447;28;19912;-82
2022/01/20 11:47:32;;;;;;;;;;;6.60;1.00;;;;;;5084867;28;19919;-82
2022/01/20 11:49:58;;;;;;;;;;;6.80;1.00;;;;;;5081732;28;19923;-82
2022/01/20 11:52:27;;;;;;;;;;;7.60;1.00;;;;;;5080819;28;19912;-82
2022/01/20 11:54:53;;;;;;;;;;;8.30;1.00;;;;;;5074876;28;19996;-82
2022/01/20 11:57:18;;;;;;;;;;;9.00;1.00;;;;;;5074780;28;19916;-82
2022/01/20 11:59:45;;;;;;;;;;;9.20;1.00;;;;;;5084031;28;20051;-81
2022/01/20 12:02:22;;;;;;;;;;;9.20;1.00;;;;;;5077884;28;20007;-82
2022/01/20 12:04:51;;;;;;;;;;;9.30;1.00;;;;;;5077465;28;20046;-81
2022/01/20 12:07:24;;;;;;;;;;;9.40;1.00;;;;;;5081838;28;19927;-82
2022/01/20 12:09:50;;;;;;;;;;;9.90;1.00;;;;;;5086918;28;20347;-82
2022/01/20 12:12:25;;;;;;;;;;;10.70;1.00;;;;;;5079827;28;19927;-82
2022/01/20 12:14:50;;;;;;;;;;;11.50;1.00;;;;;;5071201;28;20031;-82
2022/01/20 12:17:16;;;;;;;;;;;12.40;1.00;;;;;;5080343;28;20719;-83
2022/01/20 12:19:43;;;;;;;;;;;13.00;1.00;;;;;;5086653;28;19987;-83
2022/01/20 12:22:09;;;;;;;;;;;13.60;1.00;;;;;;5091279;28;19967;-82
2022/01/20 12:24:35;;;;;;;;;;;12.40;1.00;;;;;;5089850;28;19990;-82
2022/01/20 12:27:00;;;;;;;;;;;12.20;1.00;;;;;;5081495;28;19913;-82
2022/01/20 12:29:36;;;;;;;;;;;12.40;1.00;;;;;;5087450;28;19916;-82
2022/01/20 12:32:01;;;;;;;;;;;12.30;1.00;;;;;;5092036;28;19978;-82
2022/01/20 12:34:27;;;;;;;;;;;11.90;1.00;;;;;;5091911;28;19912;-82
2022/01/20 12:36:53;;;;;;;;;;;11.60;1.00;;;;;;5086402;28;19916;-82
2022/01/20 12:39:26;;;;;;;;;;;10.80;1.00;;;;;;5081227;28;20368;-81
2022/01/20 12:41:55;;;;;;;;;;;10.30;1.00;;;;;;5084076;28;19934;-81
2022/01/20 12:44:21;;;;;;;;;;;10.10;1.00;;;;;;5081411;28;20222;-82
2022/01/20 12:46:47;;;;;;;;;;;10.80;1.00;;;;;;5086565;28;19916;-82
2022/01/20 12:49:12;;;;;;;;;;;11.40;1.00;;;;;;5078289;28;20015;-82
2022/01/20 12:51:38;;;;;;;;;;;12.10;1.00;;;;;;5088044;28;19912;-82
2022/01/20 12:54:11;;;;;;;;;;;12.70;1.00;;;;;;5085800;28;19984;-82
2022/01/20 12:56:39;;;;;;;;;;;12.40;1.00;;;;;;5087371;28;19938;-82
2022/01/20 12:59:05;;;;;;;;;;;12.20;1.00;;;;;;5085637;28;19934;-82
2022/01/20 13:01:41;;;;;;;;;;;12.20;1.00;;;;;;5080182;28;19919;-83
2022/01/20 13:04:09;;;;;;;;;;;12.10;1.00;;;;;;5086500;28;20007;-82
2022/01/20 13:06:35;;;;;;;;;;;12.20;1.00;;;;;;5086348;28;19968;-82
2022/01/20 13:09:06;;;;;;;;;;;12.30;1.00;;;;;;5080960;28;19947;-82
2022/01/20 13:11:39;;;;;;;;;;;12.50;1.00;;;;;;5084406;28;19923;-82
2022/01/20 13:14:05;;;;;;;;;;;12.60;1.00;;;;;;5076124;28;19919;-82
2022/01/20 13:16:32;;;;;;;;;;;12.70;1.00;;;;;;5079179;28;19913;-82
2022/01/20 13:18:59;;;;;;;;;;;12.90;1.00;;;;;;5075312;28;19913;-82
2022/01/20 13:21:35;;;;;;;;;;;13.10;1.00;;;;;;5086003;28;19943;-82
2022/01/20 13:24:02;;;;;;;;;;;13.20;1.00;;;;;;5081235;28;19912;-82
2022/01/20 13:26:27;;;;;;;;;;;13.10;1.00;;;;;;5083964;28;19920;-81
2022/01/20 13:29:04;;;;;;;;;;;12.80;1.00;;;;;;5080017;28;19912;-81
2022/01/20 13:31:30;;;;;;;;;;;12.80;1.00;;;;;;5071997;28;19920;-82
2022/01/20 13:34:05;;;;;;;;;;;12.70;1.00;;;;;;5079270;28;19913;-81
2022/01/20 13:36:57;;;;;;;;;;;11.60;99.90;;;;;;5078430;28;19904;-81
2022/01/20 13:39:27;;;;;;;;;;;10.70;99.90;;;;;;5097047;28;19916;-82
2022/01/20 13:42:02;;;;;;;;;;;10.10;99.90;;;;;;5089382;28;19919;-81
2022/01/20 13:47:12;;;;;;;;;;;9.50;99.90;;;;;;5079488;28;19919;-81
2022/01/20 13:49:54;;;;;;;;;;;9.10;99.90;;;;;;5079299;28;20349;-80
2022/01/20 13:52:20;;;;;;;;;;;8.70;99.90;;;;;;5086994;28;19913;-81
2022/01/20 13:54:45;;;;;;;;;;;8.30;99.90;;;;;;5085922;28;19943;-81
2022/01/20 13:57:11;;;;;;;;;;;7.90;99.90;;;;;;5086285;28;19917;-81
2022/01/20 13:59:47;;;;;;;;;;;7.70;99.90;;;;;;5073501;28;19912;-81
2022/01/20 14:02:12;;;;;;;;;;;7.60;99.90;;;;;;5086987;28;19923;-81
2022/01/20 14:04:38;;;;;;;;;;;7.60;99.90;;;;;;5077355;28;19948;-81
2022/01/20 14:07:03;;;;;;;;;;;8.30;99.90;;;;;;5077278;28;19916;-81
2022/01/20 14:09:28;;;;;;;;;;;8.90;99.90;;;;;;5077648;28;19921;-81
2022/01/20 14:11:54;;;;;;;;;;;9.00;99.90;;;;;;5080510;28;19952;-81
2022/01/20 14:14:19;;;;;;;;;;;8.90;99.90;;;;;;5069519;28;19923;-81
2022/01/20 14:16:45;;;;;;;;;;;9.00;99.90;;;;;;5075520;28;19913;-82
2022/01/20 14:19:12;;;;;;;;;;;9.10;99.90;;;;;;5077930;28;19913;-81
2022/01/20 14:21:37;;;;;;;;;;;9.00;99.90;;;;;;5079263;28;20277;-81
2022/01/20 14:24:03;;;;;;;;;;;8.70;99.90;;;;;;5083843;28;19913;-81
2022/01/20 14:26:30;;;;;;;;;;;8.50;99.90;;;;;;5077641;28;20007;-81
2022/01/20 14:28:57;;;;;;;;;;;8.30;99.90;;;;;;5083960;28;19919;-82
2022/01/20 14:31:22;;;;;;;;;;;8.10;99.90;;;;;;5082300;28;19923;-81
2022/01/20 14:33:48;;;;;;;;;;;8.10;99.90;;;;;;5083383;28;19915;-81
2022/01/20 14:36:13;;;;;;;;;;;7.90;99.90;;;;;;5081592;28;19917;-81
2022/01/20 14:38:39;;;;;;;;;;;7.80;99.90;;;;;;5080343;28;19912;-80
2022/01/20 14:41:04;;;;;;;;;;;7.50;99.90;;;;;;5083513;28;19979;-81
2022/01/20 14:43:30;;;;;;;;;;;7.20;99.90;;;;;;5072149;28;19922;-81
2022/01/20 14:45:55;;;;;;;;;;;6.70;99.90;;;;;;5087306;28;20006;-80
2022/01/20 14:48:21;;;;;;;;;;;6.50;99.90;;;;;;5085531;28;19912;-81
2022/01/20 14:50:46;;;;;;;;;;;6.40;1.00;;;;;;5080621;28;19968;-81
2022/01/20 14:53:12;;;;;;;;;;;6.30;1.00;;;;;;5079503;28;19989;-80
2022/01/20 14:55:38;;;;;;;;;;;6.10;1.00;;;;;;5080305;28;19909;-81
2022/01/20 14:58:04;;;;;;;;;;;6.00;1.00;;;;;;5081873;28;19917;-80
2022/01/20 15:00:29;;;;;;;;;;;5.90;1.00;;;;;;5079988;28;19946;-81
2022/01/20 15:02:55;;;;;;;;;;;5.70;1.00;;;;;;5077718;28;19972;-80
2022/01/20 15:05:21;;;;;;;;;;;5.70;1.00;;;;;;5071294;28;19913;-80
2022/01/20 15:07:47;;;;;;;;;;;5.60;1.00;;;;;;5085786;28;19930;-80
2022/01/20 15:10:13;;;;;;;;;;;5.40;1.00;;;;;;5076535;28;19920;-80
2022/01/20 15:12:39;;;;;;;;;;;5.30;1.00;;;;;;5079435;28;19995;-81
2022/01/20 15:15:06;;;;;;;;;;;5.30;1.00;;;;;;5098890;28;19959;-81
2022/01/20 15:17:31;;;;;;;;;;;5.20;1.00;;;;;;5099197;28;19934;-80
2022/01/20 15:19:57;;;;;;;;;;;5.10;1.00;;;;;;5074297;28;19948;-81
2022/01/20 15:22:22;;;;;;;;;;;5.10;1.00;;;;;;5081413;28;19917;-81
2022/01/20 15:24:48;;;;;;;;;;;5.10;1.00;;;;;;5080537;28;19931;-80
2022/01/20 15:27:13;;;;;;;;;;;5.00;1.00;;;;;;5081327;28;19967;-80
2022/01/20 15:29:39;;;;;;;;;;;5.00;1.00;;;;;;5077059;28;19912;-81
2022/01/20 15:32:04;;;;;;;;;;;5.00;1.00;;;;;;5076886;28;19948;-81
2022/01/20 15:34:30;;;;;;;;;;;5.00;1.00;;;;;;5069597;28;19913;-81
2022/01/20 15:36:56;;;;;;;;;;;5.00;1.00;;;;;;5083242;28;19924;-81
2022/01/20 15:39:21;;;;;;;;;;;4.90;1.00;;;;;;5086176;28;19913;-81